Time;durP1;ratioP1;P1;durP2;ratioP2;P2;SDS_P1;SDS_P2;PMS_P1;PMS_P2;Temp;Humidity;BMP_temperature;BMP_pressure;BME280_temperature;BME280_humidity;BME280_pressure;Samples;Min_cycle;Max_cycle;Signal;HPM_P1;HPM_P2
2021/04/16 00:00:57;;;;;;;;;;;16.90;63.70;;;;;;4970840;28;20013;-85
2021/04/16 00:03:22;;;;;;;;;;;16.90;63.70;;;;;;4988163;28;19918;-86
2021/04/16 00:05:48;;;;;;;;;;;16.90;63.70;;;;;;4960004;28;19921;-85
2021/04/16 00:08:30;;;;;;;;;;;16.80;63.70;;;;;;4977865;28;20013;-85
2021/04/16 00:10:58;;;;;;;;;;;16.90;63.60;;;;;;4972097;28;20367;-85
2021/04/16 00:13:24;;;;;;;;;;;16.90;63.60;;;;;;4971855;28;19918;-86
2021/04/16 00:15:55;;;;;;;;;;;16.80;63.60;;;;;;4967371;28;19919;-85
2021/04/16 00:18:25;;;;;;;;;;;16.90;63.50;;;;;;4979470;28;20368;-86
2021/04/16 00:20:50;;;;;;;;;;;16.90;63.50;;;;;;5007091;28;19914;-84
2021/04/16 00:23:16;;;;;;;;;;;16.90;63.50;;;;;;4972365;28;19937;-86
2021/04/16 00:25:41;;;;;;;;;;;16.90;63.40;;;;;;4957524;28;20390;-85
2021/04/16 00:28:08;;;;;;;;;;;16.80;63.40;;;;;;4971791;28;19914;-85
2021/04/16 00:30:36;;;;;;;;;;;16.80;63.40;;;;;;4981598;28;19929;-85
2021/04/16 00:33:01;;;;;;;;;;;16.80;63.40;;;;;;4972042;28;19971;-85
2021/04/16 00:35:27;;;;;;;;;;;16.80;63.30;;;;;;4976641;28;19957;-85
2021/04/16 00:37:52;;;;;;;;;;;16.80;63.30;;;;;;5006884;28;19922;-85
2021/04/16 00:40:21;;;;;;;;;;;16.80;63.30;;;;;;4975802;28;19926;-85
2021/04/16 00:43:05;;;;;;;;;;;16.80;63.30;;;;;;4976000;28;19921;-85
2021/04/16 00:45:32;;;;;;;;;;;16.80;63.20;;;;;;5005943;28;19914;-85
2021/04/16 00:47:58;;;;;;;;;;;16.80;63.20;;;;;;4965160;28;19965;-85
2021/04/16 00:50:50;;;;;;;;;;;16.80;63.20;;;;;;4975785;28;20449;-85
2021/04/16 00:53:16;;;;;;;;;;;16.80;63.20;;;;;;4978116;28;19941;-85
2021/04/16 00:55:42;;;;;;;;;;;16.80;63.10;;;;;;4978687;28;19918;-85
2021/04/16 00:58:07;;;;;;;;;;;16.80;63.10;;;;;;4978815;28;19958;-85
2021/04/16 01:00:35;;;;;;;;;;;16.80;63.00;;;;;;5005822;28;19993;-85
2021/04/16 01:03:01;;;;;;;;;;;16.80;63.00;;;;;;4972631;28;19914;-84
2021/04/16 01:05:27;;;;;;;;;;;16.80;63.00;;;;;;4971416;28;20327;-84
2021/04/16 01:07:52;;;;;;;;;;;16.80;63.00;;;;;;5001732;28;19918;-85
2021/04/16 01:10:18;;;;;;;;;;;16.80;63.00;;;;;;4972739;28;20394;-85
2021/04/16 01:12:44;;;;;;;;;;;16.80;62.90;;;;;;4974536;28;19934;-85
2021/04/16 01:15:17;;;;;;;;;;;16.80;63.00;;;;;;4978813;28;19933;-84
2021/04/16 01:17:51;;;;;;;;;;;16.80;62.90;;;;;;4967148;28;19918;-85
2021/04/16 01:20:19;;;;;;;;;;;16.80;62.80;;;;;;4966683;28;19964;-85
2021/04/16 01:23:03;;;;;;;;;;;16.80;62.90;;;;;;4966130;28;19914;-84
2021/04/16 01:25:28;;;;;;;;;;;16.80;62.80;;;;;;4957305;28;19923;-85
2021/04/16 01:27:56;;;;;;;;;;;16.80;62.80;;;;;;4960924;28;19914;-85
2021/04/16 01:30:24;;;;;;;;;;;16.80;62.80;;;;;;4978010;28;19962;-85
2021/04/16 01:32:51;;;;;;;;;;;16.80;62.70;;;;;;4982950;28;20469;-84
2021/04/16 01:35:19;;;;;;;;;;;16.80;62.70;;;;;;4970040;28;19934;-85
2021/04/16 01:37:45;;;;;;;;;;;16.80;62.70;;;;;;4968543;28;19975;-85
2021/04/16 01:40:11;;;;;;;;;;;16.80;62.70;;;;;;4974095;28;19985;-85
2021/04/16 01:42:40;;;;;;;;;;;16.80;62.60;;;;;;4974957;28;19925;-85
2021/04/16 01:45:07;;;;;;;;;;;16.80;62.60;;;;;;4973411;28;19914;-85
2021/04/16 01:47:37;;;;;;;;;;;16.80;62.60;;;;;;4966827;28;19934;-85
2021/04/16 01:50:03;;;;;;;;;;;16.80;62.60;;;;;;4976473;28;19944;-85
2021/04/16 01:52:33;;;;;;;;;;;16.80;62.50;;;;;;4961987;28;19918;-85
2021/04/16 01:54:59;;;;;;;;;;;16.80;62.50;;;;;;4976676;28;19918;-84
2021/04/16 01:57:32;;;;;;;;;;;16.80;62.50;;;;;;4986101;28;19915;-85
2021/04/16 01:59:59;;;;;;;;;;;16.80;62.50;;;;;;4959926;28;19914;-85
2021/04/16 02:02:26;;;;;;;;;;;16.80;62.50;;;;;;4972934;28;20375;-85
2021/04/16 02:04:51;;;;;;;;;;;16.80;62.40;;;;;;4970713;28;19922;-84
2021/04/16 02:07:17;;;;;;;;;;;16.70;62.40;;;;;;4974137;28;20457;-84
2021/04/16 02:09:43;;;;;;;;;;;16.70;62.40;;;;;;4968587;28;19918;-85
2021/04/16 02:12:10;;;;;;;;;;;16.70;62.40;;;;;;4972700;28;19918;-85
2021/04/16 02:14:36;;;;;;;;;;;16.70;62.40;;;;;;4977997;28;19918;-85
2021/04/16 02:17:03;;;;;;;;;;;16.80;62.40;;;;;;4973166;28;19914;-85
2021/04/16 02:19:33;;;;;;;;;;;16.80;62.30;;;;;;4968009;28;19921;-85
2021/04/16 02:21:59;;;;;;;;;;;16.80;62.30;;;;;;4963191;28;19920;-85
2021/04/16 02:24:29;;;;;;;;;;;16.70;62.30;;;;;;4962766;28;19918;-85
2021/04/16 02:26:55;;;;;;;;;;;16.70;62.20;;;;;;5005434;28;19964;-85
2021/04/16 02:29:21;;;;;;;;;;;16.70;62.20;;;;;;5004129;28;19957;-85
2021/04/16 02:31:47;;;;;;;;;;;16.70;62.20;;;;;;4998207;28;19914;-84
2021/04/16 02:34:25;;;;;;;;;;;16.70;62.20;;;;;;5004349;28;19922;-86
2021/04/16 02:36:52;;;;;;;;;;;16.70;62.20;;;;;;4968348;28;19918;-84
2021/04/16 02:39:18;;;;;;;;;;;16.70;62.20;;;;;;4968592;28;19914;-86
2021/04/16 02:41:48;;;;;;;;;;;16.70;62.20;;;;;;4976919;28;19936;-84
2021/04/16 02:44:14;;;;;;;;;;;16.70;62.10;;;;;;4971614;28;19967;-84
2021/04/16 02:46:40;;;;;;;;;;;16.70;62.10;;;;;;4986341;28;19926;-85
2021/04/16 02:49:06;;;;;;;;;;;16.70;62.10;;;;;;4969020;28;19914;-84
2021/04/16 02:51:34;;;;;;;;;;;16.70;62.10;;;;;;4985762;28;20016;-85
2021/04/16 02:54:00;;;;;;;;;;;16.70;62.00;;;;;;4971840;28;19914;-84
2021/04/16 02:56:26;;;;;;;;;;;16.70;62.00;;;;;;4988063;28;19924;-85
2021/04/16 02:58:56;;;;;;;;;;;16.70;62.00;;;;;;4964403;28;19914;-84
2021/04/16 03:01:22;;;;;;;;;;;16.70;62.00;;;;;;4959501;28;20386;-84
2021/04/16 03:03:52;;;;;;;;;;;16.70;62.00;;;;;;4969660;28;19914;-84
2021/04/16 03:06:18;;;;;;;;;;;16.60;62.00;;;;;;4965033;28;19921;-84
2021/04/16 03:08:43;;;;;;;;;;;16.70;62.00;;;;;;4973416;28;19914;-85
2021/04/16 03:11:10;;;;;;;;;;;16.70;61.90;;;;;;4967345;28;20390;-85
2021/04/16 03:13:36;;;;;;;;;;;16.70;61.90;;;;;;4973591;28;19926;-85
2021/04/16 03:16:01;;;;;;;;;;;16.70;61.90;;;;;;4973952;28;19925;-84
2021/04/16 03:18:27;;;;;;;;;;;16.70;61.90;;;;;;4994852;28;20377;-85
2021/04/16 03:20:53;;;;;;;;;;;16.70;61.80;;;;;;4996316;28;19922;-85
2021/04/16 03:23:18;;;;;;;;;;;16.60;61.80;;;;;;4974686;28;19968;-85
2021/04/16 03:25:44;;;;;;;;;;;16.60;61.80;;;;;;4973265;28;19946;-85
2021/04/16 03:28:09;;;;;;;;;;;16.70;61.80;;;;;;5004640;28;19914;-85
2021/04/16 03:30:35;;;;;;;;;;;16.60;61.80;;;;;;5001128;28;19921;-85
2021/04/16 03:33:01;;;;;;;;;;;16.60;61.80;;;;;;5003157;28;19918;-85
2021/04/16 03:35:26;;;;;;;;;;;16.70;61.70;;;;;;4977435;28;19919;-85
2021/04/16 03:37:52;;;;;;;;;;;16.60;61.70;;;;;;4971454;28;20351;-85
2021/04/16 03:40:22;;;;;;;;;;;16.60;61.70;;;;;;4975894;28;19930;-85
2021/04/16 03:42:48;;;;;;;;;;;16.60;61.70;;;;;;4996129;28;19914;-86
2021/04/16 03:45:14;;;;;;;;;;;16.60;61.60;;;;;;4972524;28;19922;-85
2021/04/16 03:47:44;;;;;;;;;;;16.60;61.60;;;;;;4970030;28;19975;-84
2021/04/16 03:50:10;;;;;;;;;;;16.60;61.60;;;;;;4981246;28;20009;-84
2021/04/16 03:52:35;;;;;;;;;;;16.60;61.60;;;;;;4972947;28;19918;-85
2021/04/16 03:55:01;;;;;;;;;;;16.60;61.60;;;;;;4973009;28;20517;-86
2021/04/16 03:57:31;;;;;;;;;;;16.60;61.50;;;;;;4971896;28;19976;-85
2021/04/16 03:59:57;;;;;;;;;;;16.60;61.50;;;;;;4963288;28;19925;-85
2021/04/16 04:02:23;;;;;;;;;;;16.60;61.50;;;;;;4970508;28;20286;-85
2021/04/16 04:04:49;;;;;;;;;;;16.60;61.50;;;;;;4964415;28;19914;-85
2021/04/16 04:07:15;;;;;;;;;;;16.60;61.50;;;;;;4971055;28;19921;-85
2021/04/16 04:09:40;;;;;;;;;;;16.60;61.40;;;;;;4973431;28;19941;-85
2021/04/16 04:12:06;;;;;;;;;;;16.60;61.40;;;;;;4974024;28;20001;-85
2021/04/16 04:14:37;;;;;;;;;;;16.60;61.40;;;;;;4971824;28;19918;-86
2021/04/16 04:17:03;;;;;;;;;;;16.60;61.40;;;;;;4968235;28;19922;-85
2021/04/16 04:19:34;;;;;;;;;;;16.60;61.40;;;;;;4973073;28;19976;-85
2021/04/16 04:22:00;;;;;;;;;;;16.60;61.30;;;;;;4973197;28;19950;-85
2021/04/16 04:24:27;;;;;;;;;;;16.60;61.40;;;;;;4962730;28;19914;-84
2021/04/16 04:26:52;;;;;;;;;;;16.60;61.30;;;;;;5003916;28;19914;-85
2021/04/16 04:29:22;;;;;;;;;;;16.50;61.30;;;;;;4967973;28;19914;-87
2021/04/16 04:31:52;;;;;;;;;;;16.60;61.30;;;;;;4970009;28;19979;-85
2021/04/16 04:34:25;;;;;;;;;;;16.60;61.20;;;;;;4970321;28;19918;-85
2021/04/16 04:36:54;;;;;;;;;;;16.60;61.20;;;;;;4969274;28;20363;-85
2021/04/16 04:39:21;;;;;;;;;;;16.60;61.20;;;;;;4970152;28;19918;-85
2021/04/16 04:41:49;;;;;;;;;;;16.60;61.20;;;;;;4966808;28;19914;-84
2021/04/16 04:44:19;;;;;;;;;;;16.60;61.10;;;;;;4971279;28;19914;-84
2021/04/16 04:46:45;;;;;;;;;;;16.60;61.10;;;;;;5001993;28;19929;-85
2021/04/16 04:49:10;;;;;;;;;;;16.60;61.10;;;;;;4968823;28;19914;-88
2021/04/16 04:51:37;;;;;;;;;;;16.60;61.00;;;;;;4974143;28;19915;-91
2021/04/16 04:54:03;;;;;;;;;;;16.60;61.00;;;;;;4969213;28;20351;-87
2021/04/16 04:56:29;;;;;;;;;;;16.60;61.00;;;;;;4969295;28;19997;-88
2021/04/16 04:58:54;;;;;;;;;;;16.60;61.00;;;;;;4968094;28;20013;-87
2021/04/16 05:01:20;;;;;;;;;;;16.60;61.00;;;;;;5001672;28;19958;-88
2021/04/16 05:03:45;;;;;;;;;;;16.60;61.00;;;;;;5002389;28;19922;-88
2021/04/16 05:06:11;;;;;;;;;;;16.60;61.00;;;;;;4967835;28;19914;-87
2021/04/16 05:08:37;;;;;;;;;;;16.60;61.00;;;;;;5002822;28;19952;-87
2021/04/16 05:11:03;;;;;;;;;;;16.60;61.00;;;;;;4971038;28;19922;-87
2021/04/16 05:13:28;;;;;;;;;;;16.60;61.00;;;;;;4970098;28;19918;-88
2021/04/16 05:15:54;;;;;;;;;;;16.60;60.90;;;;;;4967072;28;19926;-88
2021/04/16 05:18:25;;;;;;;;;;;16.70;60.90;;;;;;4967564;28;19911;-88
2021/04/16 05:20:50;;;;;;;;;;;16.60;60.90;;;;;;4970303;28;19918;-88
2021/04/16 05:23:16;;;;;;;;;;;16.60;60.90;;;;;;4972930;28;19914;-87
2021/04/16 05:25:41;;;;;;;;;;;16.60;60.90;;;;;;4974707;28;19914;-88
2021/04/16 05:28:12;;;;;;;;;;;16.60;60.90;;;;;;4970933;28;19918;-88
2021/04/16 05:30:37;;;;;;;;;;;16.70;60.80;;;;;;4973482;28;19914;-87
2021/04/16 05:33:03;;;;;;;;;;;16.60;60.80;;;;;;4973306;28;19976;-88
2021/04/16 05:35:28;;;;;;;;;;;16.70;60.80;;;;;;5002548;28;19922;-89
2021/04/16 05:37:57;;;;;;;;;;;16.60;60.70;;;;;;4974433;28;20355;-88
2021/04/16 05:40:23;;;;;;;;;;;16.70;60.70;;;;;;4973072;28;19918;-88
2021/04/16 05:42:49;;;;;;;;;;;16.70;60.70;;;;;;4974889;28;19922;-88
2021/04/16 05:45:15;;;;;;;;;;;16.70;60.70;;;;;;5006268;28;20009;-88
2021/04/16 05:47:41;;;;;;;;;;;16.70;60.70;;;;;;4974451;28;19926;-88
2021/04/16 05:50:07;;;;;;;;;;;16.70;60.70;;;;;;4992461;28;19922;-88
2021/04/16 05:52:32;;;;;;;;;;;16.70;60.60;;;;;;4973472;28;19976;-88
2021/04/16 05:54:58;;;;;;;;;;;16.70;60.60;;;;;;4974277;28;19918;-88
2021/04/16 05:57:23;;;;;;;;;;;16.70;60.60;;;;;;4974345;28;19957;-88
2021/04/16 05:59:49;;;;;;;;;;;16.70;60.50;;;;;;4995988;28;20096;-88
2021/04/16 06:10:01;;;;;;;;;;;16.70;60.50;;;;;;4976475;23;20367;-87
2021/04/16 06:12:26;;;;;;;;;;;16.70;60.50;;;;;;4956548;28;19919;-87
2021/04/16 06:14:52;;;;;;;;;;;16.80;60.40;;;;;;4966964;28;19956;-88
2021/04/16 06:17:18;;;;;;;;;;;16.70;60.40;;;;;;4954030;28;19915;-88
2021/04/16 06:19:45;;;;;;;;;;;16.80;60.40;;;;;;4953546;28;19915;-88
2021/04/16 06:22:10;;;;;;;;;;;16.70;60.40;;;;;;4989555;28;19914;-87
2021/04/16 06:24:36;;;;;;;;;;;16.70;60.30;;;;;;4985009;28;19919;-88
2021/04/16 06:27:02;;;;;;;;;;;16.80;60.40;;;;;;4970067;28;19997;-87
2021/04/16 06:29:28;;;;;;;;;;;16.70;60.30;;;;;;4978116;28;19921;-88
2021/04/16 06:31:53;;;;;;;;;;;16.80;60.30;;;;;;4955752;28;19922;-89
2021/04/16 06:34:20;;;;;;;;;;;16.80;60.30;;;;;;4967444;28;19923;-88
2021/04/16 06:36:59;;;;;;;;;;;16.70;60.20;;;;;;5389920;23;20441;-87
2021/04/16 06:39:25;;;;;;;;;;;16.80;60.20;;;;;;4974472;28;19964;-87
2021/04/16 06:41:51;;;;;;;;;;;16.80;60.20;;;;;;4992158;28;20301;-87
2021/04/16 06:44:19;;;;;;;;;;;16.80;60.20;;;;;;5007212;28;19914;-88
2021/04/16 06:46:46;;;;;;;;;;;16.70;60.20;;;;;;4975105;28;19910;-88
2021/04/16 06:49:17;;;;;;;;;;;16.80;60.20;;;;;;4977345;28;19914;-88
2021/04/16 06:52:04;;;;;;;;;;;16.80;60.10;;;;;;4988993;28;19910;-87
2021/04/16 06:54:39;;;;;;;;;;;16.80;60.10;;;;;;4973414;28;20748;-88
2021/04/16 06:57:12;;;;;;;;;;;16.80;60.10;;;;;;4992212;28;19913;-89
2021/04/16 06:59:38;;;;;;;;;;;16.80;60.10;;;;;;4974372;28;19913;-86
2021/04/16 07:02:07;;;;;;;;;;;16.80;60.00;;;;;;5005054;28;19920;-87
2021/04/16 07:04:47;;;;;;;;;;;16.80;60.00;;;;;;4991594;28;19959;-87
2021/04/16 07:07:16;;;;;;;;;;;16.80;60.00;;;;;;4972374;28;19914;-88
2021/04/16 07:09:42;;;;;;;;;;;16.80;60.00;;;;;;4988180;28;19921;-88
2021/04/16 07:12:11;;;;;;;;;;;16.80;60.00;;;;;;4970205;28;19964;-88
2021/04/16 07:14:39;;;;;;;;;;;16.80;60.00;;;;;;4990815;28;19922;-88
2021/04/16 07:17:06;;;;;;;;;;;16.80;60.00;;;;;;4974576;28;19936;-87
2021/04/16 07:19:31;;;;;;;;;;;16.80;60.00;;;;;;4972772;28;19989;-87
2021/04/16 07:22:03;;;;;;;;;;;16.80;59.90;;;;;;4990706;28;19961;-88
2021/04/16 07:24:30;;;;;;;;;;;16.80;59.90;;;;;;4994500;28;19913;-87
2021/04/16 07:26:59;;;;;;;;;;;16.80;59.90;;;;;;4992054;28;19922;-84
2021/04/16 07:29:40;;;;;;;;;;;16.80;59.90;;;;;;4995372;28;19918;-91
2021/04/16 07:32:07;;;;;;;;;;;16.80;59.90;;;;;;4974061;28;19921;-93
2021/04/16 07:34:37;;;;;;;;;;;16.80;59.90;;;;;;4990087;28;19929;-90
2021/04/16 07:37:30;;;;;;;;;;;16.80;59.80;;;;;;5005185;28;20287;-85
2021/04/16 07:40:00;;;;;;;;;;;16.80;59.80;;;;;;5010421;28;19956;-86
2021/04/16 07:42:40;;;;;;;;;;;16.80;59.70;;;;;;4991470;28;19914;-85
2021/04/16 07:45:34;;;;;;;;;;;16.80;59.70;;;;;;4990649;28;20377;-84
2021/04/16 07:48:18;;;;;;;;;;;16.80;59.60;;;;;;4974732;28;20295;-81
2021/04/16 07:50:45;;;;;;;;;;;16.90;59.60;;;;;;4976329;28;19921;-85
2021/04/16 07:53:28;;;;;;;;;;;16.80;59.60;;;;;;4991112;28;19926;-85
2021/04/16 07:56:16;;;;;;;;;;;16.90;59.60;;;;;;4991921;28;19968;-87
2021/04/16 07:58:42;;;;;;;;;;;16.90;59.50;;;;;;4988961;28;19918;-85
2021/04/16 08:01:17;;;;;;;;;;;17.00;59.40;;;;;;4991805;28;19914;-86
2021/04/16 08:03:47;;;;;;;;;;;17.00;59.30;;;;;;4971891;28;19918;-86
2021/04/16 08:06:24;;;;;;;;;;;17.00;59.20;;;;;;4988855;28;19949;-87
2021/04/16 08:08:49;;;;;;;;;;;17.10;59.10;;;;;;4989018;28;19967;-87
2021/04/16 08:11:17;;;;;;;;;;;17.10;59.00;;;;;;4974040;28;19922;-86
2021/04/16 08:13:43;;;;;;;;;;;17.10;58.90;;;;;;4992951;28;19922;-86
2021/04/16 08:16:13;;;;;;;;;;;17.10;58.90;;;;;;4974670;28;20359;-86
2021/04/16 08:18:40;;;;;;;;;;;17.10;58.90;;;;;;4991902;28;19910;-87
2021/04/16 08:21:17;;;;;;;;;;;17.10;58.80;;;;;;5000697;28;20054;-86
2021/04/16 08:23:46;;;;;;;;;;;17.20;58.70;;;;;;5003976;28;19921;-85
2021/04/16 08:26:13;;;;;;;;;;;17.20;58.60;;;;;;4974994;28;19921;-87
2021/04/16 08:28:48;;;;;;;;;;;17.20;58.50;;;;;;4988479;28;20416;-87
2021/04/16 08:31:15;;;;;;;;;;;17.20;58.50;;;;;;4971378;28;19914;-87
2021/04/16 08:33:46;;;;;;;;;;;17.20;58.60;;;;;;4973319;28;19949;-87
2021/04/16 08:36:18;;;;;;;;;;;17.20;58.60;;;;;;4991329;28;19972;-87
2021/04/16 08:39:05;;;;;;;;;;;17.20;58.70;;;;;;4974827;28;19914;-88
2021/04/16 08:41:31;;;;;;;;;;;17.20;58.70;;;;;;4993822;28;19918;-87
2021/04/16 08:44:05;;;;;;;;;;;17.20;58.80;;;;;;4992440;28;19919;-87
2021/04/16 08:46:36;;;;;;;;;;;17.10;58.80;;;;;;4988646;28;20008;-88
2021/04/16 08:49:25;;;;;;;;;;;17.10;58.90;;;;;;4990424;28;19914;-88
2021/04/16 08:51:58;;;;;;;;;;;17.20;58.90;;;;;;4995332;28;19967;-88
2021/04/16 08:54:24;;;;;;;;;;;17.10;58.90;;;;;;4980599;28;19921;-88
2021/04/16 08:57:00;;;;;;;;;;;17.10;59.00;;;;;;4976777;28;19921;-88
2021/04/16 08:59:28;;;;;;;;;;;17.10;59.00;;;;;;4995228;28;19921;-87
2021/04/16 09:01:56;;;;;;;;;;;17.10;59.00;;;;;;4994068;28;19983;-87
2021/04/16 09:04:24;;;;;;;;;;;17.10;59.10;;;;;;4994433;28;19914;-88
2021/04/16 09:06:57;;;;;;;;;;;17.10;59.10;;;;;;5007715;28;19923;-88
2021/04/16 09:09:40;;;;;;;;;;;17.00;59.10;;;;;;4989367;28;19917;-88
2021/04/16 09:12:06;;;;;;;;;;;17.10;59.10;;;;;;4992607;28;20343;-87
2021/04/16 09:14:34;;;;;;;;;;;17.10;59.10;;;;;;4993931;28;19947;-90
2021/04/16 09:17:01;;;;;;;;;;;17.10;59.10;;;;;;5062801;28;19917;-88
2021/04/16 09:19:27;;;;;;;;;;;17.10;59.10;;;;;;4976200;28;19951;-90
2021/04/16 09:22:06;;;;;;;;;;;17.10;59.00;;;;;;4990537;28;20053;-89
2021/04/16 09:24:44;;;;;;;;;;;17.20;59.00;;;;;;4977120;28;19914;-88
2021/04/16 09:27:28;;;;;;;;;;;17.10;59.00;;;;;;4988421;28;19980;-88
2021/04/16 09:29:59;;;;;;;;;;;17.10;59.00;;;;;;4975542;28;20064;-89
2021/04/16 09:32:38;;;;;;;;;;;17.10;59.00;;;;;;4975417;28;19913;-89
2021/04/16 09:35:30;;;;;;;;;;;17.10;59.10;;;;;;4976053;28;19914;-89
2021/04/16 09:38:14;;;;;;;;;;;17.10;59.10;;;;;;5005674;28;19929;-89
2021/04/16 09:40:40;;;;;;;;;;;17.10;59.10;;;;;;4974135;28;19963;-87
2021/04/16 09:43:09;;;;;;;;;;;17.10;59.10;;;;;;4978339;28;20621;-90
2021/04/16 09:45:34;;;;;;;;;;;17.10;59.10;;;;;;4985721;28;19950;-90
2021/04/16 09:48:04;;;;;;;;;;;17.10;59.10;;;;;;4988021;28;19914;-92
2021/04/16 09:50:30;;;;;;;;;;;17.10;59.10;;;;;;4987010;28;19959;-91
2021/04/16 09:53:28;;;;;;;;;;;17.10;59.10;;;;;;4990512;28;19926;-91
2021/04/16 09:56:00;;;;;;;;;;;17.10;59.10;;;;;;4998703;28;19914;-90
2021/04/16 09:58:46;;;;;;;;;;;17.10;59.00;;;;;;5008091;28;19920;-90
2021/04/16 10:01:16;;;;;;;;;;;17.10;59.00;;;;;;4975361;28;19944;-89
2021/04/16 10:03:48;;;;;;;;;;;17.20;58.90;;;;;;4983287;28;19922;-91
2021/04/16 10:06:39;;;;;;;;;;;17.20;58.90;;;;;;4982966;28;19918;-90
2021/04/16 10:09:20;;;;;;;;;;;17.20;58.90;;;;;;4968174;28;19913;-89
2021/04/16 10:11:54;;;;;;;;;;;17.20;58.80;;;;;;4988925;28;20264;-90
2021/04/16 10:14:23;;;;;;;;;;;17.20;58.70;;;;;;4965093;28;19922;-90
2021/04/16 10:16:51;;;;;;;;;;;17.30;58.60;;;;;;4974779;28;19914;-89
2021/04/16 10:19:19;;;;;;;;;;;17.30;58.60;;;;;;4965999;28;19913;-90
2021/04/16 10:21:45;;;;;;;;;;;17.30;58.60;;;;;;4980571;28;19946;-90
2021/04/16 10:25:18;;;;;;;;;;;17.30;58.50;;;;;;4983472;28;20007;-89
2021/04/16 12:39:34;;;;;;;;;;;17.60;57.80;;;;;;4985801;28;19921;-90
2021/04/16 12:42:00;;;;;;;;;;;17.50;57.90;;;;;;4971200;28;20351;-90
2021/04/16 12:44:29;;;;;;;;;;;17.50;58.00;;;;;;4986762;28;19955;-90
2021/04/16 12:46:56;;;;;;;;;;;17.40;58.10;;;;;;4991362;28;19954;-89
2021/04/16 12:49:26;;;;;;;;;;;17.40;58.10;;;;;;4983745;28;19924;-89
2021/04/16 12:51:52;;;;;;;;;;;17.40;58.20;;;;;;4966004;28;20362;-89
2021/04/16 12:54:17;;;;;;;;;;;17.40;58.20;;;;;;4984905;28;19964;-90
2021/04/16 12:56:43;;;;;;;;;;;17.40;58.20;;;;;;4990317;28;20003;-89
2021/04/16 12:59:16;;;;;;;;;;;17.40;58.20;;;;;;4987282;28;19913;-89
2021/04/16 13:01:45;;;;;;;;;;;17.40;58.20;;;;;;4991278;28;19918;-89
2021/04/16 13:04:12;;;;;;;;;;;17.40;58.20;;;;;;4963978;28;20252;-90
2021/04/16 13:06:39;;;;;;;;;;;17.40;58.30;;;;;;4985412;28;20322;-89
2021/04/16 13:09:05;;;;;;;;;;;17.40;58.30;;;;;;4987892;28;19914;-89
2021/04/16 13:11:31;;;;;;;;;;;17.40;58.30;;;;;;4991883;28;19922;-89
2021/04/16 13:13:57;;;;;;;;;;;17.40;58.20;;;;;;4973437;28;19949;-89
2021/04/16 13:16:23;;;;;;;;;;;17.40;58.10;;;;;;4969216;28;20319;-89
2021/04/16 13:19:05;;;;;;;;;;;17.50;58.10;;;;;;4986035;28;19914;-90
2021/04/16 13:21:32;;;;;;;;;;;17.50;57.90;;;;;;4982688;28;19937;-90
2021/04/16 13:24:03;;;;;;;;;;;17.50;57.80;;;;;;4984809;28;19925;-90
2021/04/16 13:26:28;;;;;;;;;;;17.50;57.80;;;;;;4983672;28;19922;-89
2021/04/16 13:28:55;;;;;;;;;;;17.50;57.80;;;;;;4985280;28;19918;-90
2021/04/16 13:31:21;;;;;;;;;;;17.60;57.80;;;;;;4984171;28;19953;-90
2021/04/16 13:33:47;;;;;;;;;;;17.50;57.80;;;;;;4984073;28;20007;-90
2021/04/16 13:36:14;;;;;;;;;;;17.50;57.90;;;;;;4970290;28;19922;-91
2021/04/16 13:38:40;;;;;;;;;;;17.50;57.90;;;;;;4972787;28;19913;-86
2021/04/16 13:41:06;;;;;;;;;;;17.50;57.90;;;;;;4986910;28;20317;-89
2021/04/16 13:43:33;;;;;;;;;;;17.50;58.00;;;;;;4984958;28;19914;-89
2021/04/16 13:46:00;;;;;;;;;;;17.50;58.00;;;;;;4987929;28;19920;-90
2021/04/16 13:48:25;;;;;;;;;;;17.50;58.10;;;;;;4990844;28;19914;-90
2021/04/16 13:50:54;;;;;;;;;;;17.50;58.20;;;;;;4985699;28;19926;-90
2021/04/16 13:53:19;;;;;;;;;;;17.50;58.30;;;;;;4983418;28;20033;-91
2021/04/16 13:55:45;;;;;;;;;;;17.40;58.30;;;;;;4972984;28;20403;-90
2021/04/16 13:58:11;;;;;;;;;;;17.40;58.30;;;;;;4990188;28;19921;-90
2021/04/16 14:00:36;;;;;;;;;;;17.40;58.40;;;;;;4985420;28;19921;-91
2021/04/16 14:03:14;;;;;;;;;;;17.40;58.50;;;;;;4972932;28;20362;-90
2021/04/16 14:06:05;;;;;;;;;;;17.40;58.50;;;;;;4999073;28;19914;-90
2021/04/16 14:08:33;;;;;;;;;;;17.40;58.40;;;;;;4970708;28;19918;-89
2021/04/16 14:10:59;;;;;;;;;;;17.40;58.40;;;;;;4989480;28;19922;-89
2021/04/16 14:13:27;;;;;;;;;;;17.40;58.30;;;;;;4975531;28;19965;-89
2021/04/16 14:15:54;;;;;;;;;;;17.40;58.30;;;;;;4996621;28;19921;-89
2021/04/16 14:18:25;;;;;;;;;;;17.50;58.20;;;;;;4980713;28;19922;-89
2021/04/16 14:20:50;;;;;;;;;;;17.50;58.20;;;;;;4986736;28;19914;-88
2021/04/16 14:23:16;;;;;;;;;;;17.50;58.20;;;;;;4975299;28;20279;-89
2021/04/16 14:25:46;;;;;;;;;;;17.50;58.10;;;;;;4994719;28;19967;-90
2021/04/16 14:28:13;;;;;;;;;;;17.50;58.10;;;;;;5000067;28;20335;-89
2021/04/16 14:30:40;;;;;;;;;;;17.50;58.00;;;;;;4995272;28;19948;-89
2021/04/16 14:33:10;;;;;;;;;;;17.50;58.10;;;;;;4995335;28;19992;-88
2021/04/16 14:35:38;;;;;;;;;;;17.50;58.10;;;;;;4994976;28;19921;-90
2021/04/16 14:38:04;;;;;;;;;;;17.50;58.20;;;;;;4953610;28;19930;-89
2021/04/16 14:40:30;;;;;;;;;;;17.50;58.30;;;;;;4951007;28;19921;-89
2021/04/16 14:42:56;;;;;;;;;;;17.50;58.30;;;;;;4973549;28;19940;-88
2021/04/16 14:45:23;;;;;;;;;;;17.50;58.30;;;;;;4971186;28;19926;-89
2021/04/16 14:47:49;;;;;;;;;;;17.50;58.30;;;;;;4968820;28;19948;-88
2021/04/16 14:50:15;;;;;;;;;;;17.40;58.20;;;;;;4953584;28;20290;-91
2021/04/16 14:52:40;;;;;;;;;;;17.40;58.30;;;;;;4956634;28;19946;-89
2021/04/16 14:55:08;;;;;;;;;;;17.50;58.20;;;;;;4955171;28;20626;-89
2021/04/16 14:57:38;;;;;;;;;;;17.40;58.30;;;;;;4971572;28;19914;-89
2021/04/16 15:00:05;;;;;;;;;;;17.50;58.20;;;;;;4969118;28;19919;-90
2021/04/16 15:02:31;;;;;;;;;;;17.40;58.30;;;;;;4951574;28;19940;-89
2021/04/16 15:04:56;;;;;;;;;;;17.40;58.20;;;;;;4956735;28;19926;-89
2021/04/16 15:07:24;;;;;;;;;;;17.40;58.20;;;;;;4968569;28;19914;-90
2021/04/16 15:09:51;;;;;;;;;;;17.40;58.30;;;;;;4953094;28;19921;-90
2021/04/16 15:12:19;;;;;;;;;;;17.50;58.30;;;;;;4967695;28;19914;-89
2021/04/16 15:14:46;;;;;;;;;;;17.40;58.20;;;;;;4949484;28;19930;-90
2021/04/16 15:17:12;;;;;;;;;;;17.40;58.20;;;;;;4951287;28;19926;-89
2021/04/16 15:19:46;;;;;;;;;;;17.40;58.20;;;;;;4951341;28;19922;-90
2021/04/16 15:22:25;;;;;;;;;;;17.40;58.30;;;;;;4949604;28;19919;-89
2021/04/16 15:24:52;;;;;;;;;;;17.40;58.30;;;;;;4966128;28;19937;-90
2021/04/16 15:27:19;;;;;;;;;;;17.40;58.40;;;;;;4967875;28;19915;-89
2021/04/16 15:29:45;;;;;;;;;;;17.40;58.40;;;;;;4967946;28;19914;-87
2021/04/16 15:32:37;;;;;;;;;;;17.30;58.40;;;;;;4952911;28;20296;-89
2021/04/16 15:46:03;;;;;;;;;;;17.30;58.50;;;;;;4989419;28;19929;-90
2021/04/16 15:48:31;;;;;;;;;;;17.30;58.50;;;;;;4986032;28;19967;-90
2021/04/16 15:50:59;;;;;;;;;;;17.30;58.50;;;;;;4988961;28;20354;-89
2021/04/16 15:53:26;;;;;;;;;;;17.30;58.50;;;;;;4987200;28;19929;-90
2021/04/16 15:55:52;;;;;;;;;;;17.30;58.50;;;;;;4970322;28;19972;-90
2021/04/16 15:58:23;;;;;;;;;;;17.40;58.50;;;;;;4988779;28;19914;-89
2021/04/16 16:00:50;;;;;;;;;;;17.30;58.50;;;;;;4971725;28;20354;-90
2021/04/16 16:03:16;;;;;;;;;;;17.40;58.50;;;;;;4987410;28;20286;-89
2021/04/16 16:05:42;;;;;;;;;;;17.30;58.50;;;;;;4983277;28;19918;-90
2021/04/16 16:08:08;;;;;;;;;;;17.30;58.50;;;;;;4967330;28;19928;-90
2021/04/16 16:10:34;;;;;;;;;;;17.30;58.50;;;;;;4985895;28;19918;-89
2021/04/16 16:13:01;;;;;;;;;;;17.40;58.50;;;;;;4968517;28;20024;-91
2021/04/16 16:15:35;;;;;;;;;;;17.30;58.50;;;;;;4969509;28;19926;-90
2021/04/16 16:18:05;;;;;;;;;;;17.30;58.60;;;;;;4985116;28;19926;-90
2021/04/16 16:20:32;;;;;;;;;;;17.30;58.50;;;;;;4982676;28;19917;-90
2021/04/16 16:22:58;;;;;;;;;;;17.30;58.50;;;;;;4985360;28;20016;-91
2021/04/16 16:25:24;;;;;;;;;;;17.30;58.60;;;;;;4984995;28;19914;-90
2021/04/16 16:27:54;;;;;;;;;;;17.30;58.60;;;;;;4976946;28;19929;-91
2021/04/16 16:30:22;;;;;;;;;;;17.30;58.70;;;;;;4984240;28;20023;-92
2021/04/16 16:32:48;;;;;;;;;;;17.30;58.70;;;;;;4985539;28;19918;-92
2021/04/16 16:35:16;;;;;;;;;;;17.30;58.80;;;;;;4991142;28;19918;-89
2021/04/16 16:37:53;;;;;;;;;;;17.30;58.80;;;;;;4966912;28;19930;-92
2021/04/16 16:40:19;;;;;;;;;;;17.30;58.90;;;;;;4967333;28;19918;-94
2021/04/16 16:42:46;;;;;;;;;;;17.30;58.90;;;;;;4958996;28;19922;-91
2021/04/16 16:45:23;;;;;;;;;;;17.20;59.00;;;;;;4980551;28;19941;-92
2021/04/16 16:47:49;;;;;;;;;;;17.30;58.90;;;;;;4995118;28;19928;-92
2021/04/16 16:50:15;;;;;;;;;;;17.20;59.00;;;;;;4974764;28;20001;-91
2021/04/16 16:52:41;;;;;;;;;;;17.30;59.00;;;;;;4970613;28;19915;-94
2021/04/16 16:55:10;;;;;;;;;;;17.20;59.00;;;;;;4972685;28;19964;-92
2021/04/16 16:57:36;;;;;;;;;;;17.20;59.00;;;;;;4967203;28;19918;-91